createdAt,value
2022-10-21T00:00:19.427Z,99555.69
2022-10-21T00:03:06.534Z,99560.75
2022-10-21T00:05:33.496Z,99565.81
2022-10-21T00:08:00.284Z,99562.25
2022-10-21T00:10:27.389Z,99556.16
2022-10-21T00:12:54.222Z,99545.78
2022-10-21T00:15:21.202Z,99550.88
2022-10-21T00:17:47.998Z,99548.19
2022-10-21T00:20:15.368Z,99545.56
2022-10-21T00:22:42.262Z,99545.47
2022-10-21T00:25:11.056Z,99541.06
2022-10-21T00:27:38.288Z,99540.16
2022-10-21T00:30:07.742Z,99543.53
2022-10-21T00:32:35.098Z,99538.41
2022-10-21T00:35:02.341Z,99537.53
2022-10-21T00:37:31.063Z,99536.63
2022-10-21T00:39:58.866Z,99536.69
2022-10-21T00:42:37.860Z,99529.00
2022-10-21T00:45:06.694Z,99530.69
2022-10-21T00:47:39.506Z,99525.44
2022-10-21T00:50:08.094Z,99519.44
2022-10-21T00:52:35.232Z,99515.06
2022-10-21T00:55:04.956Z,99510.78
2022-10-21T00:57:35.183Z,99507.25
2022-10-21T01:00:05.098Z,99502.06
2022-10-21T01:02:32.104Z,99498.50
2022-10-21T01:05:02.065Z,99496.75
2022-10-21T01:07:29.081Z,99502.81
2022-10-21T01:09:56.058Z,99494.28
2022-10-21T01:12:43.526Z,99499.50
2022-10-21T01:15:24.810Z,99502.16
2022-10-21T01:18:10.514Z,99497.91
2022-10-21T01:20:43.343Z,99492.78
2022-10-21T01:23:34.492Z,99493.63
2022-10-21T01:26:39.035Z,99481.66
2022-10-21T01:29:17.771Z,99485.88
2022-10-21T01:32:01.389Z,99481.47
2022-10-21T01:34:37.421Z,99467.69
2022-10-21T01:37:10.285Z,99471.09
2022-10-21T01:40:04.681Z,99470.41
2022-10-21T01:42:55.115Z,99469.78
2022-10-21T01:45:26.354Z,99467.25
2022-10-21T01:48:03.089Z,99469.84
2022-10-21T01:50:36.403Z,99461.25
2022-10-21T01:53:08.079Z,99471.69
2022-10-21T01:55:36.456Z,99474.34
2022-10-21T01:58:17.126Z,99461.44
2022-10-21T02:00:45.091Z,99459.88
2022-10-21T02:03:16.562Z,99459.00
2022-10-21T02:05:43.486Z,99452.00
2022-10-21T02:08:10.614Z,99450.22
2022-10-21T02:10:41.950Z,99444.91
2022-10-21T02:13:11.281Z,99450.00
2022-10-21T02:15:41.064Z,99451.66
2022-10-21T02:18:17.281Z,99449.00
2022-10-21T02:20:45.272Z,99442.97
2022-10-21T02:23:17.292Z,99433.50
2022-10-21T02:25:48.826Z,99440.38
2022-10-21T02:28:16.920Z,99437.78
2022-10-21T02:31:09.078Z,99428.38
2022-10-21T02:33:48.040Z,99417.25
2022-10-21T02:36:22.206Z,99416.44
2022-10-21T02:38:54.196Z,99425.91
2022-10-21T02:41:25.146Z,99429.31
2022-10-21T02:44:02.244Z,99428.47
2022-10-21T02:46:37.955Z,99432.00
2022-10-21T02:49:04.923Z,99426.09
2022-10-21T02:51:31.878Z,99428.75
2022-10-21T02:53:58.857Z,99427.06
2022-10-21T02:56:26.757Z,99430.56
2022-10-21T02:58:54.114Z,99424.53
2022-10-21T03:01:20.970Z,99431.41
2022-10-21T03:03:47.929Z,99433.09
2022-10-21T03:06:14.733Z,99421.91
2022-10-21T03:08:41.739Z,99414.91
2022-10-21T03:11:08.627Z,99405.47
2022-10-21T03:13:35.639Z,99408.03
2022-10-21T03:16:02.426Z,99399.34
2022-10-21T03:18:29.417Z,99396.66
2022-10-21T03:20:56.196Z,99398.31
2022-10-21T03:23:23.182Z,99393.00
2022-10-21T03:25:49.959Z,99390.34
2022-10-21T03:28:16.969Z,99401.47
2022-10-21T03:30:43.786Z,99392.84
2022-10-21T03:33:10.760Z,99390.22
2022-10-21T03:35:37.578Z,99387.66
2022-10-21T03:38:04.588Z,99389.31
2022-10-21T03:40:31.498Z,99385.88
2022-10-21T03:42:59.451Z,99393.66
2022-10-21T03:45:26.871Z,99386.00
2022-10-21T03:47:54.075Z,99383.41
2022-10-21T03:50:23.622Z,99377.38
2022-10-21T03:52:52.578Z,99383.34
2022-10-21T03:55:21.050Z,99380.66
2022-10-21T03:57:48.833Z,99373.69
2022-10-21T04:00:16.288Z,99371.88
2022-10-21T04:02:43.505Z,99377.75
2022-10-21T04:05:11.031Z,99371.75
2022-10-21T04:07:38.740Z,99369.16
2022-10-21T04:10:07.205Z,99366.56
2022-10-21T04:12:34.456Z,99363.97
2022-10-21T04:15:01.334Z,99363.91
2022-10-21T04:17:28.471Z,99363.84
2022-10-21T04:19:55.239Z,99375.84
2022-10-21T04:22:22.242Z,99368.06
2022-10-21T04:24:49.046Z,99354.38
2022-10-21T04:27:16.090Z,99359.56
2022-10-21T04:29:43.104Z,99359.59
2022-10-21T04:32:10.499Z,99357.97
2022-10-21T04:34:37.541Z,99355.44
2022-10-21T04:37:05.315Z,99354.56
2022-10-21T04:39:32.356Z,99350.19
2022-10-21T04:41:59.590Z,99345.00
2022-10-21T04:44:26.355Z,99347.53
2022-10-21T04:46:53.321Z,99337.13
2022-10-21T04:49:20.351Z,99337.09
2022-10-21T04:51:47.428Z,99340.53
2022-10-21T04:54:14.751Z,99341.44
2022-10-21T04:56:42.762Z,99329.41
2022-10-21T04:59:09.943Z,99338.88
2022-10-21T05:01:37.011Z,99340.53
2022-10-21T05:04:03.863Z,99336.22
2022-10-21T05:06:31.337Z,99333.69
2022-10-21T05:08:58.315Z,99336.31
2022-10-21T05:11:25.407Z,99329.47
2022-10-21T05:13:52.271Z,99329.44
2022-10-21T05:16:19.238Z,99325.25
2022-10-21T05:18:46.056Z,99324.06
2022-10-21T05:21:13.420Z,99323.81
2022-10-21T05:23:40.244Z,99312.22
2022-10-21T05:26:07.805Z,99303.91
2022-10-21T05:28:34.591Z,99308.31
2022-10-21T05:31:01.771Z,99294.34
2022-10-21T05:33:28.966Z,99299.25
2022-10-21T05:36:01.856Z,99296.19
2022-10-21T05:38:29.651Z,99294.59
2022-10-21T05:40:56.943Z,99285.94
2022-10-21T05:43:24.090Z,99291.84
2022-10-21T05:45:51.392Z,99290.63
2022-10-21T05:48:18.437Z,99291.28
2022-10-21T05:50:46.866Z,99286.72
2022-10-21T05:53:14.144Z,99299.53
2022-10-21T05:55:41.131Z,99293.41
2022-10-21T05:58:08.050Z,99292.63
2022-10-21T06:00:35.336Z,99296.44
2022-10-21T06:03:02.266Z,99302.63
2022-10-21T06:05:29.295Z,99298.66
2022-10-21T06:07:56.136Z,99302.38
2022-10-21T06:10:26.735Z,99288.97
2022-10-21T06:12:55.918Z,99294.59
2022-10-21T06:15:22.973Z,99286.69
2022-10-21T06:17:51.801Z,99283.94
2022-10-21T06:20:19.042Z,99293.38
2022-10-21T06:22:45.836Z,99289.00
2022-10-21T06:25:12.917Z,99292.03
2022-10-21T06:27:40.000Z,99291.72
2022-10-21T06:30:07.807Z,99292.38
2022-10-21T06:32:35.740Z,99290.84
2022-10-21T06:35:03.411Z,99281.72
2022-10-21T06:37:30.181Z,99276.84
2022-10-21T06:39:57.254Z,99285.22
2022-10-21T06:42:24.002Z,99288.91
2022-10-21T06:44:51.047Z,99282.97
2022-10-21T06:47:17.842Z,99279.16
2022-10-21T06:49:45.060Z,99284.81
2022-10-21T06:52:11.836Z,99289.50
2022-10-21T06:54:38.865Z,99297.47
2022-10-21T06:57:05.678Z,99292.41
2022-10-21T06:59:32.914Z,99287.66
2022-10-21T07:02:00.912Z,99293.53
2022-10-21T07:04:29.306Z,99286.72
2022-10-21T07:06:56.067Z,99289.19
2022-10-21T07:09:23.287Z,99284.75
2022-10-21T07:11:50.058Z,99280.59
2022-10-21T07:14:17.069Z,99285.31
2022-10-21T07:16:43.952Z,99279.53
2022-10-21T07:19:11.357Z,99278.66
2022-10-21T07:21:38.199Z,99279.66
2022-10-21T07:24:05.477Z,99282.16
2022-10-21T07:26:34.345Z,99290.84
2022-10-21T07:29:01.380Z,99277.75
2022-10-21T07:31:32.455Z,99281.50
2022-10-21T07:34:01.286Z,99277.56
2022-10-21T07:36:30.755Z,99269.69
2022-10-21T07:39:00.270Z,99262.25
2022-10-21T07:41:31.565Z,99258.63
2022-10-21T07:43:58.667Z,99262.50
2022-10-21T07:46:25.917Z,99259.22
2022-10-21T07:48:53.016Z,99261.97
2022-10-21T07:51:26.950Z,99265.69
2022-10-21T07:53:59.318Z,99270.09
2022-10-21T07:56:31.865Z,99263.09
2022-10-21T07:58:59.344Z,99265.09
2022-10-21T08:01:26.282Z,99253.81
2022-10-21T08:03:55.388Z,99250.19
2022-10-21T08:06:23.818Z,99252.41
2022-10-21T08:08:51.158Z,99244.88
2022-10-21T08:11:30.385Z,99236.47
2022-10-21T08:13:57.943Z,99226.25
2022-10-21T08:16:25.390Z,99214.28
2022-10-21T08:18:53.448Z,99205.84
2022-10-21T08:21:20.431Z,99197.13
2022-10-21T08:23:47.881Z,99191.81
2022-10-21T08:26:16.346Z,99206.28
2022-10-21T08:28:44.481Z,99201.56
2022-10-21T08:31:14.058Z,99205.56
2022-10-21T08:33:41.543Z,99194.88
2022-10-21T08:36:12.171Z,99197.69
2022-10-21T08:38:39.447Z,99205.69
2022-10-21T08:41:31.004Z,99210.84
2022-10-21T08:44:27.029Z,99213.56
2022-10-21T08:47:17.598Z,99221.28
2022-10-21T08:50:05.426Z,99205.63
2022-10-21T08:52:43.972Z,99208.09
2022-10-21T08:55:19.280Z,99207.88
2022-10-21T08:57:48.078Z,99204.66
2022-10-21T09:00:21.249Z,99210.06
2022-10-21T09:03:15.380Z,99205.97
2022-10-21T09:06:09.404Z,99201.69
2022-10-21T09:09:00.402Z,99199.03
2022-10-21T09:11:56.184Z,99208.06
2022-10-21T09:15:00.021Z,99205.66
2022-10-21T09:17:48.766Z,99204.47
2022-10-21T09:20:59.476Z,99195.00
2022-10-21T09:23:42.966Z,99184.38
2022-10-21T09:26:42.340Z,99182.50
2022-10-21T09:29:15.460Z,99176.16
2022-10-21T09:31:43.957Z,99171.66
2022-10-21T09:34:33.146Z,99163.78
2022-10-21T09:37:01.225Z,99159.31
2022-10-21T09:39:42.001Z,99168.50
2022-10-21T09:42:29.218Z,99155.00
2022-10-21T09:45:00.175Z,99153.50
2022-10-21T09:47:27.064Z,99158.84
2022-10-21T09:50:09.170Z,99157.00
2022-10-21T09:52:37.661Z,99160.63
2022-10-21T09:55:05.174Z,99150.28
2022-10-21T09:57:51.777Z,99135.41
2022-10-21T10:00:18.830Z,99148.59
2022-10-21T10:02:46.323Z,99137.28
2022-10-21T10:05:44.048Z,99142.78
2022-10-21T10:08:29.296Z,99132.56
2022-10-21T10:11:13.467Z,99135.59
2022-10-21T10:13:42.470Z,99135.34
2022-10-21T10:16:23.668Z,99125.31
2022-10-21T10:18:53.029Z,99135.84
2022-10-21T10:21:22.116Z,99119.66
2022-10-21T10:23:52.659Z,99116.31
2022-10-21T10:26:31.976Z,99122.13
2022-10-21T10:29:00.803Z,99109.06
2022-10-21T10:31:30.475Z,99111.06
2022-10-21T10:34:08.918Z,99107.56
2022-10-21T10:36:40.359Z,99106.13
2022-10-21T10:39:23.440Z,99104.16
2022-10-21T10:41:52.427Z,99098.66
2022-10-21T10:44:31.069Z,99091.97
2022-10-21T10:47:01.089Z,99075.72
2022-10-21T10:49:36.514Z,99077.59
2022-10-21T10:52:17.862Z,99073.16
2022-10-21T10:54:44.684Z,99067.94
2022-10-21T10:57:29.957Z,99072.38
2022-10-21T11:00:17.095Z,99062.97
2022-10-21T11:02:51.314Z,99057.16
2022-10-21T11:05:24.306Z,99052.28
2022-10-21T11:07:58.054Z,99053.06
2022-10-21T11:11:00.104Z,99054.25
2022-10-21T11:13:28.411Z,99047.25
2022-10-21T11:16:05.798Z,99038.94
2022-10-21T11:18:44.612Z,99037.56
2022-10-21T11:21:27.739Z,99035.81
2022-10-21T11:24:25.233Z,99037.06
2022-10-21T11:27:08.286Z,99017.56
2022-10-21T11:30:14.867Z,99015.84
2022-10-21T11:33:13.386Z,99017.97
2022-10-21T11:36:03.284Z,99006.72
2022-10-21T11:38:38.602Z,98997.41
2022-10-21T11:41:33.351Z,98995.03
2022-10-21T11:44:29.404Z,98984.16
2022-10-21T11:47:27.308Z,98984.19
2022-10-21T11:50:12.129Z,98978.72
2022-10-21T11:53:14.803Z,98981.63
2022-10-21T11:55:44.550Z,98977.72
2022-10-21T11:58:50.121Z,98978.38
2022-10-21T12:01:47.652Z,98973.34
2022-10-21T12:04:49.989Z,98973.63
2022-10-21T12:07:35.413Z,98963.78
2022-10-21T12:10:23.354Z,98968.22
2022-10-21T12:12:53.693Z,98963.69
2022-10-21T12:15:26.926Z,98962.97
2022-10-21T12:17:54.415Z,98969.53
2022-10-21T12:20:26.895Z,98956.31
2022-10-21T12:23:00.277Z,98956.34
2022-10-21T12:26:04.230Z,98948.69
2022-10-21T12:28:43.703Z,98942.94
2022-10-21T12:31:28.173Z,98949.09
2022-10-21T12:33:55.715Z,98938.72
2022-10-21T12:36:22.625Z,98944.13
2022-10-21T12:38:58.154Z,98930.66
2022-10-21T12:41:25.090Z,98933.63
2022-10-21T12:44:23.959Z,98922.13
2022-10-21T12:46:57.274Z,98918.06
2022-10-21T12:49:33.596Z,98914.00
2022-10-21T12:52:10.329Z,98912.75
2022-10-21T12:54:58.193Z,98911.25
2022-10-21T12:57:38.802Z,98899.13
2022-10-21T13:00:28.046Z,98902.69
2022-10-21T13:03:00.142Z,98912.28
2022-10-21T13:05:38.816Z,98904.22
2022-10-21T13:08:24.236Z,98901.31
2022-10-21T13:11:03.064Z,98901.16
2022-10-21T13:13:38.856Z,98896.81
2022-10-21T13:16:20.834Z,98888.97
2022-10-21T13:18:52.498Z,98895.59
2022-10-21T13:21:25.048Z,98898.56
2022-10-21T13:23:54.272Z,98902.84
2022-10-21T13:26:26.698Z,98892.44
2022-10-21T13:29:19.394Z,98897.53
2022-10-21T13:31:46.259Z,98889.97
2022-10-21T13:34:30.123Z,98874.47
2022-10-21T13:36:57.773Z,98880.78
2022-10-21T13:39:32.054Z,98870.31
2022-10-21T13:42:03.376Z,98881.41
2022-10-21T13:44:37.184Z,98865.16
2022-10-21T13:47:18.915Z,98870.63
2022-10-21T13:49:55.713Z,98862.13
2022-10-21T13:52:28.481Z,98860.69
2022-10-21T13:55:00.629Z,98850.47
2022-10-21T13:57:32.248Z,98849.53
2022-10-21T14:00:08.542Z,98845.50
2022-10-21T14:02:35.640Z,98840.16
2022-10-21T14:05:02.916Z,98842.03
2022-10-21T14:07:30.078Z,98846.53
2022-10-21T14:09:59.016Z,98850.16
2022-10-21T14:12:41.565Z,98857.28
2022-10-21T14:15:18.226Z,98842.69
2022-10-21T14:17:51.226Z,98844.28
2022-10-21T14:20:37.729Z,98840.56
2022-10-21T14:23:08.631Z,98839.47
2022-10-21T14:25:35.772Z,98834.75
2022-10-21T14:28:04.695Z,98836.88
2022-10-21T14:30:33.972Z,98821.53
2022-10-21T14:33:03.511Z,98812.47
2022-10-21T14:35:31.408Z,98805.38
2022-10-21T14:38:00.811Z,98808.63
2022-10-21T14:40:35.790Z,98805.91
2022-10-21T14:43:18.771Z,98806.28
2022-10-21T14:45:53.887Z,98806.78
2022-10-21T14:48:33.673Z,98805.47
2022-10-21T14:51:05.647Z,98804.06
2022-10-21T14:53:37.703Z,98807.06
2022-10-21T14:56:06.952Z,98802.91
2022-10-21T14:58:38.207Z,98800.34
2022-10-21T15:01:12.524Z,98797.69
2022-10-21T15:03:42.269Z,98798.81
2022-10-21T15:06:31.354Z,98796.81
2022-10-21T15:08:59.114Z,98793.53
2022-10-21T15:11:26.087Z,98788.50
2022-10-21T15:14:07.313Z,98785.38
2022-10-21T15:19:12.843Z,98790.84
2022-10-21T15:21:50.729Z,98795.75
2022-10-21T15:24:23.718Z,98789.31
2022-10-21T15:26:53.242Z,98794.28
2022-10-21T15:29:26.071Z,98784.69
2022-10-21T15:31:54.753Z,98785.66
2022-10-21T15:34:22.448Z,98792.38
2022-10-21T15:36:49.747Z,98792.97
2022-10-21T15:39:16.584Z,98785.28
2022-10-21T15:41:44.159Z,98794.06
2022-10-21T15:44:31.483Z,98788.41
2022-10-21T15:47:02.945Z,98785.25
2022-10-21T15:49:45.949Z,98792.91
2022-10-21T15:52:14.210Z,98790.16
2022-10-21T15:54:41.696Z,98787.25
2022-10-21T15:57:21.591Z,98795.19
2022-10-21T15:59:49.102Z,98785.78
2022-10-21T16:02:17.710Z,98787.03
2022-10-21T16:04:45.104Z,98784.03
2022-10-21T16:07:21.797Z,98770.91
2022-10-21T16:09:48.632Z,98769.81
2022-10-21T16:12:19.519Z,98774.06
2022-10-21T16:14:46.363Z,98771.38
2022-10-21T16:17:14.426Z,98778.97
2022-10-21T16:19:42.235Z,98785.72
2022-10-21T16:22:18.341Z,98793.56
2022-10-21T16:24:45.372Z,98789.97
2022-10-21T16:27:13.617Z,98780.81
2022-10-21T16:29:40.811Z,98777.00
2022-10-21T16:32:12.356Z,98786.47
2022-10-21T16:34:40.377Z,98792.59
2022-10-21T16:37:24.749Z,98788.88
2022-10-21T16:39:51.935Z,98789.56
2022-10-21T16:42:19.083Z,98796.63
2022-10-21T16:44:46.420Z,98795.59
2022-10-21T16:47:19.294Z,98807.97
2022-10-21T16:49:47.203Z,98814.97
2022-10-21T16:52:15.846Z,98814.03
2022-10-21T16:54:46.484Z,98821.28
2022-10-21T16:57:15.551Z,98816.97
2022-10-21T16:59:42.338Z,98819.63
2022-10-21T17:02:20.588Z,98826.78
2022-10-21T17:04:47.358Z,98821.81
2022-10-21T17:07:14.386Z,98829.22
2022-10-21T17:09:41.299Z,98833.13
2022-10-21T17:12:11.185Z,98830.91
2022-10-21T17:14:38.448Z,98841.03
2022-10-21T17:17:05.649Z,98835.34
2022-10-21T17:19:32.422Z,98840.06
2022-10-21T17:21:59.850Z,98828.13
2022-10-21T17:24:27.952Z,98830.94
2022-10-21T17:26:56.242Z,98827.13
2022-10-21T17:29:23.681Z,98824.88
2022-10-21T17:31:51.768Z,98822.59
2022-10-21T17:34:29.572Z,98822.09
2022-10-21T17:36:56.723Z,98823.91
2022-10-21T17:39:24.381Z,98818.41
2022-10-21T17:41:51.616Z,98820.75
2022-10-21T17:44:18.686Z,98821.06
2022-10-21T17:46:47.727Z,98820.50
2022-10-21T17:49:14.628Z,98826.34
2022-10-21T17:51:41.718Z,98822.78
2022-10-21T17:54:09.737Z,98823.25
2022-10-21T17:56:36.802Z,98822.53
2022-10-21T17:59:04.057Z,98816.72
2022-10-21T18:01:31.778Z,98814.28
2022-10-21T18:03:59.515Z,98809.53
2022-10-21T18:06:27.026Z,98812.72
2022-10-21T18:08:53.887Z,98811.63
2022-10-21T18:11:21.330Z,98809.75
2022-10-21T18:13:52.042Z,98809.69
2022-10-21T18:16:23.505Z,98806.09
2022-10-21T18:18:50.646Z,98808.06
2022-10-21T18:21:20.783Z,98801.91
2022-10-21T18:23:50.025Z,98807.28
2022-10-21T18:26:25.160Z,98807.13
2022-10-21T18:28:53.773Z,98804.47
2022-10-21T18:31:24.146Z,98804.72
2022-10-21T18:33:54.345Z,98809.22
2022-10-21T18:36:22.129Z,98797.63
2022-10-21T18:38:49.063Z,98802.16
2022-10-21T18:41:20.543Z,98791.75
2022-10-21T18:43:50.713Z,98795.31
2022-10-21T18:46:18.827Z,98800.34
2022-10-21T18:48:46.032Z,98801.22
2022-10-21T18:51:17.823Z,98795.00
2022-10-21T18:53:48.592Z,98800.34
2022-10-21T18:56:19.315Z,98786.41
2022-10-21T18:58:46.105Z,98785.44
2022-10-21T19:01:15.189Z,98795.31
2022-10-21T19:03:42.355Z,98778.13
2022-10-21T19:06:18.568Z,98781.63
2022-10-21T19:08:46.935Z,98771.81
2022-10-21T19:11:14.088Z,98762.66
2022-10-21T19:13:41.198Z,98771.88
2022-10-21T19:16:08.360Z,98778.78
2022-10-21T19:18:35.363Z,98779.56
2022-10-21T19:21:02.358Z,98794.28
2022-10-21T19:23:31.742Z,98784.72
2022-10-21T19:26:03.715Z,98780.41
2022-10-21T19:28:31.291Z,98776.81
2022-10-21T19:30:58.408Z,98784.72
2022-10-21T19:33:25.406Z,98794.28
2022-10-21T19:35:52.719Z,98773.13
2022-10-21T19:38:26.116Z,98781.75
2022-10-21T19:40:53.437Z,98773.66
2022-10-21T19:43:20.254Z,98779.47
2022-10-21T19:45:47.353Z,98786.47
2022-10-21T19:48:16.094Z,98778.63
2022-10-21T19:50:47.518Z,98778.69
2022-10-21T19:53:14.514Z,98786.47
2022-10-21T19:55:41.601Z,98774.69
2022-10-21T19:58:08.787Z,98787.75
2022-10-21T20:00:36.689Z,98767.38
2022-10-21T20:03:04.517Z,98765.50
2022-10-21T20:05:34.465Z,98760.38
2022-10-21T20:08:01.309Z,98770.03
2022-10-21T20:10:28.399Z,98740.94
2022-10-21T20:12:55.186Z,98746.38
2022-10-21T20:15:22.228Z,98752.34
2022-10-21T20:17:48.992Z,98743.72
2022-10-21T20:20:16.347Z,98755.25
2022-10-21T20:22:43.282Z,98759.25
2022-10-21T20:25:10.487Z,98742.56
2022-10-21T20:27:37.580Z,98754.75
2022-10-21T20:30:05.126Z,98740.41
2022-10-21T20:32:31.960Z,98738.81
2022-10-21T20:34:58.993Z,98733.66
2022-10-21T20:37:25.832Z,98737.16
2022-10-21T20:39:52.891Z,98734.44
2022-10-21T20:42:19.663Z,98735.53
2022-10-21T20:44:46.941Z,98732.75
2022-10-21T20:47:13.984Z,98725.84
2022-10-21T20:49:40.952Z,98727.44
2022-10-21T20:52:07.699Z,98722.44
2022-10-21T20:54:34.894Z,98727.03
2022-10-21T20:57:01.700Z,98728.91
2022-10-21T20:59:28.638Z,98735.97
2022-10-21T21:01:55.478Z,98737.59
2022-10-21T21:04:25.267Z,98735.13
2022-10-21T21:06:52.315Z,98728.47
2022-10-21T21:12:08.221Z,98746.03
2022-10-21T21:14:35.279Z,98741.72
2022-10-21T21:17:02.021Z,98738.69
2022-10-21T21:19:28.997Z,98728.97
2022-10-21T21:21:55.746Z,98733.13
2022-10-21T21:24:22.721Z,98727.78
2022-10-21T21:26:49.560Z,98737.50
2022-10-21T21:29:16.646Z,98735.53
2022-10-21T21:31:44.000Z,98733.75
2022-10-21T21:34:11.361Z,98726.75
2022-10-21T21:36:38.407Z,98733.00
2022-10-21T21:39:06.707Z,98731.25
2022-10-21T21:41:34.447Z,98726.47
2022-10-21T21:44:01.402Z,98714.22
2022-10-21T21:46:28.245Z,98711.72
2022-10-21T21:49:05.535Z,98711.72
2022-10-21T21:51:34.783Z,98700.72
2022-10-21T21:54:01.823Z,98688.59
2022-10-21T21:56:28.772Z,98693.44
2022-10-21T21:58:57.755Z,98675.03
2022-10-21T22:01:27.729Z,98674.41
2022-10-21T22:03:55.834Z,98674.81
2022-10-21T22:08:57.634Z,98667.72
2022-10-21T22:11:26.453Z,98677.34
2022-10-21T22:13:53.649Z,98666.47
2022-10-21T22:16:22.314Z,98669.13
2022-10-21T22:18:49.489Z,98659.50
2022-10-21T22:21:18.494Z,98653.53
2022-10-21T22:23:47.333Z,98656.19
2022-10-21T22:26:15.410Z,98662.50
2022-10-21T22:28:43.976Z,98654.47
2022-10-21T22:31:13.766Z,98666.09
2022-10-21T22:33:41.592Z,98663.53
2022-10-21T22:36:08.914Z,98660.88
2022-10-21T22:38:36.280Z,98657.47
2022-10-21T22:41:06.121Z,98654.19
2022-10-21T22:43:35.497Z,98661.22
2022-10-21T22:46:09.671Z,98658.25
2022-10-21T22:48:42.578Z,98656.56
2022-10-21T22:51:09.380Z,98660.81
2022-10-21T22:53:36.870Z,98666.75
2022-10-21T22:56:04.558Z,98662.16
2022-10-21T22:58:31.543Z,98653.94
2022-10-21T23:00:58.598Z,98650.25
2022-10-21T23:03:25.705Z,98650.94
2022-10-21T23:05:52.617Z,98634.72
2022-10-21T23:08:19.689Z,98635.22
2022-10-21T23:10:49.593Z,98630.03
2022-10-21T23:13:16.663Z,98627.38
2022-10-21T23:15:44.377Z,98633.25
2022-10-21T23:18:11.352Z,98650.56
2022-10-21T23:20:38.553Z,98636.47
2022-10-21T23:23:05.703Z,98648.00
2022-10-21T23:25:32.881Z,98644.31
2022-10-21T23:27:59.848Z,98640.84
2022-10-21T23:30:26.699Z,98646.59
2022-10-21T23:32:53.694Z,98644.72
2022-10-21T23:35:20.590Z,98647.38
2022-10-21T23:37:47.780Z,98640.06
2022-10-21T23:40:14.575Z,98646.91
2022-10-21T23:42:42.883Z,98650.09
2022-10-21T23:45:11.497Z,98647.09
2022-10-21T23:47:40.033Z,98649.56
2022-10-21T23:50:08.754Z,98642.38
2022-10-21T23:52:37.153Z,98642.38
2022-10-21T23:55:06.296Z,98630.75
2022-10-21T23:57:33.388Z,98625.53
